sensor_id;sensor_type;location;lat;lon;timestamp;pressure;altitude;pressure_sealevel;temperature;humidity
3206;BME280;1615;53.602;11.418;2023-08-12T00:02:32;101401.41;;;20.83;100.00
3206;BME280;1615;53.602;11.418;2023-08-12T00:04:57;101407.44;;;20.85;100.00
3206;BME280;1615;53.602;11.418;2023-08-12T00:07:22;101401.53;;;20.86;100.00
3206;BME280;1615;53.602;11.418;2023-08-12T00:09:48;101379.91;;;20.71;100.00
3206;BME280;1615;53.602;11.418;2023-08-12T00:12:14;101354.00;;;20.59;100.00
3206;BME280;1615;53.602;11.418;2023-08-12T00:14:40;101404.59;;;20.93;100.00
3206;BME280;1615;53.602;11.418;2023-08-12T00:17:05;101348.28;;;20.55;100.00
3206;BME280;1615;53.602;11.418;2023-08-12T00:19:31;101390.84;;;20.88;100.00
3206;BME280;1615;53.602;11.418;2023-08-12T00:21:56;101397.03;;;20.94;100.00
3206;BME280;1615;53.602;11.418;2023-08-12T00:24:22;101365.50;;;20.69;100.00
3206;BME280;1615;53.602;11.418;2023-08-12T00:26:47;101148.13;;;19.41;100.00
3206;BME280;1615;53.602;11.418;2023-08-12T00:29:12;101364.00;;;20.72;100.00
3206;BME280;1615;53.602;11.418;2023-08-12T00:31:38;101363.78;;;20.77;100.00
3206;BME280;1615;53.602;11.418;2023-08-12T00:34:03;101356.47;;;20.72;100.00
3206;BME280;1615;53.602;11.418;2023-08-12T00:36:28;101358.41;;;20.72;100.00
3206;BME280;1615;53.602;11.418;2023-08-12T00:38:53;101365.28;;;20.74;100.00
3206;BME280;1615;53.602;11.418;2023-08-12T00:41:19;101364.22;;;20.79;100.00
3206;BME280;1615;53.602;11.418;2023-08-12T00:43:44;101344.47;;;20.60;100.00
3206;BME280;1615;53.602;11.418;2023-08-12T00:46:12;101377.47;;;20.82;100.00
3206;BME280;1615;53.602;11.418;2023-08-12T00:48:37;101393.25;;;20.66;100.00
3206;BME280;1615;53.602;11.418;2023-08-12T00:51:03;101361.22;;;20.72;100.00
3206;BME280;1615;53.602;11.418;2023-08-12T00:53:28;101306.25;;;20.36;100.00
3206;BME280;1615;53.602;11.418;2023-08-12T00:55:54;101299.63;;;20.29;100.00
3206;BME280;1615;53.602;11.418;2023-08-12T00:58:19;101346.56;;;20.63;100.00
3206;BME280;1615;53.602;11.418;2023-08-12T01:00:45;101372.97;;;20.77;100.00
3206;BME280;1615;53.602;11.418;2023-08-12T01:03:10;101364.94;;;20.76;100.00
3206;BME280;1615;53.602;11.418;2023-08-12T01:05:36;101372.97;;;20.77;100.00
3206;BME280;1615;53.602;11.418;2023-08-12T01:08:02;101275.44;;;20.21;100.00
3206;BME280;1615;53.602;11.418;2023-08-12T01:10:33;101332.75;;;20.66;100.00
3206;BME280;1615;53.602;11.418;2023-08-12T01:13:09;101108.38;;;19.28;100.00
3206;BME280;1615;53.602;11.418;2023-08-12T01:15:39;101339.38;;;20.74;100.00
3206;BME280;1615;53.602;11.418;2023-08-12T01:18:06;101319.53;;;20.63;100.00
3206;BME280;1615;53.602;11.418;2023-08-12T01:20:32;101275.13;;;20.34;100.00
3206;BME280;1615;53.602;11.418;2023-08-12T01:23:11;101340.41;;;20.81;100.00
3206;BME280;1615;53.602;11.418;2023-08-12T01:25:38;101338.56;;;20.73;100.00
3206;BME280;1615;53.602;11.418;2023-08-12T01:28:04;101311.50;;;20.62;100.00
3206;BME280;1615;53.602;11.418;2023-08-12T01:30:30;101345.66;;;20.83;100.00
3206;BME280;1615;53.602;11.418;2023-08-12T01:33:01;101316.84;;;20.67;100.00
3206;BME280;1615;53.602;11.418;2023-08-12T01:35:36;101333.94;;;20.77;100.00
3206;BME280;1615;53.602;11.418;2023-08-12T01:38:05;101337.28;;;20.83;100.00
3206;BME280;1615;53.602;11.418;2023-08-12T01:40:31;101239.03;;;20.26;100.00
3206;BME280;1615;53.602;11.418;2023-08-12T01:42:56;101326.59;;;20.85;100.00
3206;BME280;1615;53.602;11.418;2023-08-12T01:45:22;101330.09;;;20.82;100.00
3206;BME280;1615;53.602;11.418;2023-08-12T01:47:48;101297.22;;;20.63;100.00
3206;BME280;1615;53.602;11.418;2023-08-12T01:50:16;101307.19;;;20.76;100.00
3206;BME280;1615;53.602;11.418;2023-08-12T01:52:41;101288.50;;;20.53;100.00
3206;BME280;1615;53.602;11.418;2023-08-12T01:55:07;101311.28;;;20.67;100.00
3206;BME280;1615;53.602;11.418;2023-08-12T01:57:32;101326.84;;;20.80;100.00
3206;BME280;1615;53.602;11.418;2023-08-12T01:59:57;101324.97;;;20.72;100.00
3206;BME280;1615;53.602;11.418;2023-08-12T02:02:23;101149.59;;;19.59;100.00
3206;BME280;1615;53.602;11.418;2023-08-12T02:04:48;101294.06;;;20.53;100.00
3206;BME280;1615;53.602;11.418;2023-08-12T02:07:13;101318.47;;;20.68;100.00
3206;BME280;1615;53.602;11.418;2023-08-12T02:09:39;101232.06;;;20.08;100.00
3206;BME280;1615;53.602;11.418;2023-08-12T02:12:04;101248.22;;;20.26;100.00
3206;BME280;1615;53.602;11.418;2023-08-12T02:14:30;101288.38;;;20.49;100.00
3206;BME280;1615;53.602;11.418;2023-08-12T02:16:55;101181.16;;;19.75;100.00
3206;BME280;1615;53.602;11.418;2023-08-12T02:19:20;101279.69;;;20.39;100.00
3206;BME280;1615;53.602;11.418;2023-08-12T02:24:11;101171.19;;;19.74;100.00
3206;BME280;1615;53.602;11.418;2023-08-12T02:26:37;101302.34;;;20.61;100.00
3206;BME280;1615;53.602;11.418;2023-08-12T02:29:02;101288.63;;;20.56;100.00
3206;BME280;1615;53.602;11.418;2023-08-12T02:31:28;101289.44;;;20.57;100.00
3206;BME280;1615;53.602;11.418;2023-08-12T02:33:53;101294.56;;;20.55;100.00
3206;BME280;1615;53.602;11.418;2023-08-12T02:36:18;101054.41;;;19.09;100.00
3206;BME280;1615;53.602;11.418;2023-08-12T02:38:44;101284.81;;;20.49;100.00
3206;BME280;1615;53.602;11.418;2023-08-12T02:41:09;101245.88;;;20.28;100.00
3206;BME280;1615;53.602;11.418;2023-08-12T02:43:35;101242.28;;;20.28;100.00
3206;BME280;1615;53.602;11.418;2023-08-12T02:46:00;101287.59;;;20.49;100.00
3206;BME280;1615;53.602;11.418;2023-08-12T02:48:25;101301.03;;;20.47;100.00
3206;BME280;1615;53.602;11.418;2023-08-12T02:50:51;101188.97;;;19.81;100.00
3206;BME280;1615;53.602;11.418;2023-08-12T02:53:17;101270.59;;;20.42;100.00
3206;BME280;1615;53.602;11.418;2023-08-12T02:55:44;101242.19;;;20.24;100.00
3206;BME280;1615;53.602;11.418;2023-08-12T02:58:09;101204.63;;;19.98;100.00
3206;BME280;1615;53.602;11.418;2023-08-12T03:00:34;101244.13;;;20.24;100.00
3206;BME280;1615;53.602;11.418;2023-08-12T03:03:00;101261.69;;;20.36;100.00
3206;BME280;1615;53.602;11.418;2023-08-12T03:05:25;101133.25;;;19.57;100.00
3206;BME280;1615;53.602;11.418;2023-08-12T03:07:50;101262.47;;;20.37;100.00
3206;BME280;1615;53.602;11.418;2023-08-12T03:10:18;101307.19;;;20.40;100.00
3206;BME280;1615;53.602;11.418;2023-08-12T03:12:44;101253.00;;;20.38;100.00
3206;BME280;1615;53.602;11.418;2023-08-12T03:15:10;101256.91;;;20.37;100.00
3206;BME280;1615;53.602;11.418;2023-08-12T03:17:36;101252.28;;;20.41;100.00
3206;BME280;1615;53.602;11.418;2023-08-12T03:20:04;101209.31;;;20.18;100.00
3206;BME280;1615;53.602;11.418;2023-08-12T03:22:30;101218.84;;;20.17;100.00
3206;BME280;1615;53.602;11.418;2023-08-12T03:24:56;101239.50;;;20.40;100.00
3206;BME280;1615;53.602;11.418;2023-08-12T03:27:21;101212.44;;;20.16;100.00
3206;BME280;1615;53.602;11.418;2023-08-12T03:29:46;101190.03;;;20.01;100.00
3206;BME280;1615;53.602;11.418;2023-08-12T03:32:12;101237.66;;;20.32;100.00
3206;BME280;1615;53.602;11.418;2023-08-12T03:34:38;101202.44;;;20.03;100.00
3206;BME280;1615;53.602;11.418;2023-08-12T03:37:04;101252.50;;;20.24;100.00
3206;BME280;1615;53.602;11.418;2023-08-12T03:39:29;101251.56;;;20.20;100.00
3206;BME280;1615;53.602;11.418;2023-08-12T03:41:54;101141.91;;;19.56;100.00
3206;BME280;1615;53.602;11.418;2023-08-12T03:44:19;101181.25;;;19.66;100.00
3206;BME280;1615;53.602;11.418;2023-08-12T03:46:45;101240.63;;;20.15;100.00
3206;BME280;1615;53.602;11.418;2023-08-12T03:49:10;101236.47;;;20.09;100.00
3206;BME280;1615;53.602;11.418;2023-08-12T03:51:35;101215.97;;;19.93;100.00
3206;BME280;1615;53.602;11.418;2023-08-12T03:54:01;101245.06;;;20.16;100.00
3206;BME280;1615;53.602;11.418;2023-08-12T03:56:26;101212.53;;;19.96;100.00
3206;BME280;1615;53.602;11.418;2023-08-12T03:58:51;101209.50;;;20.01;100.00
3206;BME280;1615;53.602;11.418;2023-08-12T04:01:17;101170.94;;;19.67;100.00
3206;BME280;1615;53.602;11.418;2023-08-12T04:03:42;101207.06;;;19.99;100.00
3206;BME280;1615;53.602;11.418;2023-08-12T04:06:08;101182.91;;;19.91;100.00
3206;BME280;1615;53.602;11.418;2023-08-12T04:08:33;101264.06;;;20.14;100.00
3206;BME280;1615;53.602;11.418;2023-08-12T04:10:59;101227.66;;;20.19;100.00
3206;BME280;1615;53.602;11.418;2023-08-12T04:13:24;101274.53;;;20.17;100.00
3206;BME280;1615;53.602;11.418;2023-08-12T04:15:50;101239.25;;;20.21;100.00
3206;BME280;1615;53.602;11.418;2023-08-12T04:18:16;101229.06;;;20.25;100.00
3206;BME280;1615;53.602;11.418;2023-08-12T04:20:42;101221.63;;;20.17;100.00
3206;BME280;1615;53.602;11.418;2023-08-12T04:23:07;101235.56;;;20.29;100.00
3206;BME280;1615;53.602;11.418;2023-08-12T04:25:32;101227.22;;;20.29;100.00
3206;BME280;1615;53.602;11.418;2023-08-12T04:27:58;101217.91;;;20.25;100.00
3206;BME280;1615;53.602;11.418;2023-08-12T04:30:23;101093.00;;;19.55;100.00
3206;BME280;1615;53.602;11.418;2023-08-12T04:32:48;101154.28;;;19.79;100.00
3206;BME280;1615;53.602;11.418;2023-08-12T04:35:14;101200.63;;;20.31;100.00
3206;BME280;1615;53.602;11.418;2023-08-12T04:37:39;101188.66;;;20.31;100.00
3206;BME280;1615;53.602;11.418;2023-08-12T04:40:05;101154.06;;;19.96;100.00
3206;BME280;1615;53.602;11.418;2023-08-12T04:42:32;101268.09;;;20.49;100.00
3206;BME280;1615;53.602;11.418;2023-08-12T04:44:57;101220.00;;;20.52;100.00
3206;BME280;1615;53.602;11.418;2023-08-12T04:47:22;101220.84;;;20.52;100.00
3206;BME280;1615;53.602;11.418;2023-08-12T04:49:48;101214.69;;;20.59;100.00
3206;BME280;1615;53.602;11.418;2023-08-12T04:52:13;101054.78;;;19.64;100.00
3206;BME280;1615;53.602;11.418;2023-08-12T04:54:38;101216.53;;;20.67;100.00
3206;BME280;1615;53.602;11.418;2023-08-12T04:57:04;101213.25;;;20.77;100.00
3206;BME280;1615;53.602;11.418;2023-08-12T04:59:30;100945.56;;;19.19;100.00
3206;BME280;1615;53.602;11.418;2023-08-12T05:01:56;101176.00;;;20.69;100.00
3206;BME280;1615;53.602;11.418;2023-08-12T05:04:21;101206.03;;;20.88;100.00
3206;BME280;1615;53.602;11.418;2023-08-12T05:06:46;101224.88;;;20.79;100.00
3206;BME280;1615;53.602;11.418;2023-08-12T05:09:12;101197.69;;;20.88;100.00
3206;BME280;1615;53.602;11.418;2023-08-12T05:11:37;101200.47;;;20.88;100.00
3206;BME280;1615;53.602;11.418;2023-08-12T05:14:02;101179.13;;;20.80;100.00
3206;BME280;1615;53.602;11.418;2023-08-12T05:16:28;101204.66;;;20.94;100.00
3206;BME280;1615;53.602;11.418;2023-08-12T05:18:54;101193.03;;;21.04;100.00
3206;BME280;1615;53.602;11.418;2023-08-12T05:21:19;101176.09;;;20.97;100.00
3206;BME280;1615;53.602;11.418;2023-08-12T05:23:45;101188.03;;;20.97;100.00
3206;BME280;1615;53.602;11.418;2023-08-12T05:26:10;101194.19;;;21.03;100.00
3206;BME280;1615;53.602;11.418;2023-08-12T05:28:35;101204.28;;;21.07;100.00
3206;BME280;1615;53.602;11.418;2023-08-12T05:31:00;100949.31;;;19.59;100.00
3206;BME280;1615;53.602;11.418;2023-08-12T05:33:26;101173.94;;;21.06;100.00
3206;BME280;1615;53.602;11.418;2023-08-12T05:35:51;101079.81;;;20.48;100.00
3206;BME280;1615;53.602;11.418;2023-08-12T05:38:16;101088.72;;;20.53;100.00
3206;BME280;1615;53.602;11.418;2023-08-12T05:40:42;101189.88;;;21.33;100.00
3206;BME280;1615;53.602;11.418;2023-08-12T05:43:07;101176.22;;;21.28;100.00
3206;BME280;1615;53.602;11.418;2023-08-12T05:45:32;101194.72;;;21.48;100.00
3206;BME280;1615;53.602;11.418;2023-08-12T05:47:58;101138.78;;;21.29;100.00
3206;BME280;1615;53.602;11.418;2023-08-12T05:50:23;101144.66;;;21.39;100.00
3206;BME280;1615;53.602;11.418;2023-08-12T05:52:48;101093.06;;;21.18;100.00
3206;BME280;1615;53.602;11.418;2023-08-12T05:55:14;101064.06;;;21.07;100.00
3206;BME280;1615;53.602;11.418;2023-08-12T05:57:39;101183.88;;;22.01;100.00
3206;BME280;1615;53.602;11.418;2023-08-12T06:00:05;101029.19;;;21.13;100.00
3206;BME280;1615;53.602;11.418;2023-08-12T06:02:31;100985.09;;;21.03;100.00
3206;BME280;1615;53.602;11.418;2023-08-12T06:04:56;101192.97;;;22.45;100.00
3206;BME280;1615;53.602;11.418;2023-08-12T06:07:22;101144.22;;;22.11;99.12
3206;BME280;1615;53.602;11.418;2023-08-12T06:09:48;101161.50;;;22.17;100.00
3206;BME280;1615;53.602;11.418;2023-08-12T06:12:14;101210.53;;;22.61;100.00
3206;BME280;1615;53.602;11.418;2023-08-12T06:14:39;101213.44;;;22.49;100.00
3206;BME280;1615;53.602;11.418;2023-08-12T06:17:04;101232.38;;;22.55;100.00
3206;BME280;1615;53.602;11.418;2023-08-12T06:19:30;101187.91;;;22.35;100.00
3206;BME280;1615;53.602;11.418;2023-08-12T06:21:55;101213.50;;;22.37;100.00
3206;BME280;1615;53.602;11.418;2023-08-12T06:24:20;101170.34;;;22.19;100.00
3206;BME280;1615;53.602;11.418;2023-08-12T06:26:46;101140.59;;;22.11;100.00
3206;BME280;1615;53.602;11.418;2023-08-12T06:29:11;101194.59;;;22.46;100.00
3206;BME280;1615;53.602;11.418;2023-08-12T06:31:36;101196.75;;;22.52;100.00
3206;BME280;1615;53.602;11.418;2023-08-12T06:34:02;101200.78;;;22.70;100.00
3206;BME280;1615;53.602;11.418;2023-08-12T06:36:27;101183.75;;;22.60;100.00
3206;BME280;1615;53.602;11.418;2023-08-12T06:38:53;101206.59;;;22.81;100.00
3206;BME280;1615;53.602;11.418;2023-08-12T06:41:18;101213.25;;;22.92;100.00
3206;BME280;1615;53.602;11.418;2023-08-12T06:43:43;101169.06;;;22.82;100.00
3206;BME280;1615;53.602;11.418;2023-08-12T06:46:08;100991.03;;;21.79;99.70
3206;BME280;1615;53.602;11.418;2023-08-12T06:48:34;101195.97;;;23.21;97.81
3206;BME280;1615;53.602;11.418;2023-08-12T06:50:59;101173.00;;;23.15;95.17
3206;BME280;1615;53.602;11.418;2023-08-12T06:53:26;101043.56;;;22.23;94.34
3206;BME280;1615;53.602;11.418;2023-08-12T06:55:51;101171.63;;;23.25;94.97
3206;BME280;1615;53.602;11.418;2023-08-12T06:58:17;101195.88;;;23.36;96.17
3206;BME280;1615;53.602;11.418;2023-08-12T07:00:42;101152.03;;;23.06;94.46
3206;BME280;1615;53.602;11.418;2023-08-12T07:03:08;101171.81;;;23.32;93.77
3206;BME280;1615;53.602;11.418;2023-08-12T07:05:33;101163.97;;;23.41;93.11
3206;BME280;1615;53.602;11.418;2023-08-12T07:07:58;101126.00;;;23.21;93.52
3206;BME280;1615;53.602;11.418;2023-08-12T07:10:24;101176.47;;;23.66;91.47
3206;BME280;1615;53.602;11.418;2023-08-12T07:12:49;101176.00;;;23.83;90.70
3206;BME280;1615;53.602;11.418;2023-08-12T07:15:14;101107.53;;;23.58;90.16
3206;BME280;1615;53.602;11.418;2023-08-12T07:17:40;101167.63;;;24.05;87.99
3206;BME280;1615;53.602;11.418;2023-08-12T07:20:06;101148.38;;;24.04;89.90
3206;BME280;1615;53.602;11.418;2023-08-12T07:22:31;101184.53;;;24.35;88.33
3206;BME280;1615;53.602;11.418;2023-08-12T07:24:56;101139.47;;;24.21;86.09
3206;BME280;1615;53.602;11.418;2023-08-12T07:27:25;101137.91;;;24.23;84.45
3206;BME280;1615;53.602;11.418;2023-08-12T07:29:50;101133.78;;;24.40;84.15
3206;BME280;1615;53.602;11.418;2023-08-12T07:32:15;101165.94;;;24.72;83.02
3206;BME280;1615;53.602;11.418;2023-08-12T07:34:41;101165.28;;;24.82;82.59
3206;BME280;1615;53.602;11.418;2023-08-12T07:37:06;101134.22;;;24.68;83.18
3206;BME280;1615;53.602;11.418;2023-08-12T07:39:32;101117.28;;;24.61;82.51
3206;BME280;1615;53.602;11.418;2023-08-12T07:41:57;101052.28;;;24.00;83.36
3206;BME280;1615;53.602;11.418;2023-08-12T07:44:22;101157.53;;;24.72;84.04
3206;BME280;1615;53.602;11.418;2023-08-12T07:46:47;101148.78;;;24.77;85.75
3206;BME280;1615;53.602;11.418;2023-08-12T07:49:15;101082.56;;;24.43;84.29
3206;BME280;1615;53.602;11.418;2023-08-12T07:51:40;101113.06;;;24.74;83.70
3206;BME280;1615;53.602;11.418;2023-08-12T07:54:06;101118.66;;;24.74;85.84
3206;BME280;1615;53.602;11.418;2023-08-12T07:56:31;101068.06;;;24.37;86.11
3206;BME280;1615;53.602;11.418;2023-08-12T07:58:56;101073.91;;;24.55;86.38
3206;BME280;1615;53.602;11.418;2023-08-12T08:01:22;101102.25;;;24.72;85.77
3206;BME280;1615;53.602;11.418;2023-08-12T08:03:47;101119.63;;;24.85;86.84
3206;BME280;1615;53.602;11.418;2023-08-12T08:06:12;101138.78;;;25.09;86.43
3206;BME280;1615;53.602;11.418;2023-08-12T08:08:38;101107.53;;;25.10;84.58
3206;BME280;1615;53.602;11.418;2023-08-12T08:11:03;101024.50;;;24.73;83.34
3206;BME280;1615;53.602;11.418;2023-08-12T08:13:28;101047.19;;;24.94;81.58
3206;BME280;1615;53.602;11.418;2023-08-12T08:15:54;101094.50;;;25.25;83.11
3206;BME280;1615;53.602;11.418;2023-08-12T08:18:19;101034.06;;;25.01;82.94
3206;BME280;1615;53.602;11.418;2023-08-12T08:20:45;101100.00;;;25.51;84.27
3206;BME280;1615;53.602;11.418;2023-08-12T08:23:10;101135.22;;;25.81;81.19
3206;BME280;1615;53.602;11.418;2023-08-12T08:25:35;101136.38;;;25.77;80.61
3206;BME280;1615;53.602;11.418;2023-08-12T08:28:01;101062.91;;;25.31;80.06
3206;BME280;1615;53.602;11.418;2023-08-12T08:30:26;101131.56;;;25.77;79.22
3206;BME280;1615;53.602;11.418;2023-08-12T08:32:51;101113.81;;;25.70;81.66
3206;BME280;1615;53.602;11.418;2023-08-12T08:35:17;101127.59;;;25.82;82.60
3206;BME280;1615;53.602;11.418;2023-08-12T08:37:42;101083.84;;;25.41;81.71
3206;BME280;1615;53.602;11.418;2023-08-12T08:40:08;101143.84;;;25.99;78.65
3206;BME280;1615;53.602;11.418;2023-08-12T08:42:34;101135.13;;;26.14;77.98
3206;BME280;1615;53.602;11.418;2023-08-12T08:45:00;101114.34;;;26.26;77.42
3206;BME280;1615;53.602;11.418;2023-08-12T08:47:27;101132.97;;;26.44;77.14
3206;BME280;1615;53.602;11.418;2023-08-12T08:49:55;101124.19;;;26.53;75.11
3206;BME280;1615;53.602;11.418;2023-08-12T08:52:21;101120.09;;;26.43;74.98
3206;BME280;1615;53.602;11.418;2023-08-12T08:54:47;101068.97;;;26.27;76.46
3206;BME280;1615;53.602;11.418;2023-08-12T08:57:13;101078.28;;;26.38;73.01
3206;BME280;1615;53.602;11.418;2023-08-12T08:59:38;101077.00;;;26.29;74.80
3206;BME280;1615;53.602;11.418;2023-08-12T09:02:04;101131.59;;;26.82;74.54
3206;BME280;1615;53.602;11.418;2023-08-12T09:04:35;101068.69;;;26.50;72.10
3206;BME280;1615;53.602;11.418;2023-08-12T09:07:01;101115.56;;;26.89;71.28
3206;BME280;1615;53.602;11.418;2023-08-12T09:09:27;101013.06;;;26.15;70.85
3206;BME280;1615;53.602;11.418;2023-08-12T09:11:53;101072.00;;;26.59;72.36
3206;BME280;1615;53.602;11.418;2023-08-12T09:14:21;101111.25;;;27.13;70.94
3206;BME280;1615;53.602;11.418;2023-08-12T09:16:46;100918.22;;;26.02;70.82
3206;BME280;1615;53.602;11.418;2023-08-12T09:19:12;101014.97;;;26.69;70.02
3206;BME280;1615;53.602;11.418;2023-08-12T09:21:37;101071.03;;;27.16;70.04
3206;BME280;1615;53.602;11.418;2023-08-12T09:24:03;101117.41;;;27.43;70.67
3206;BME280;1615;53.602;11.418;2023-08-12T09:26:31;101096.09;;;27.49;71.38
3206;BME280;1615;53.602;11.418;2023-08-12T09:28:58;101006.22;;;26.95;69.93
3206;BME280;1615;53.602;11.418;2023-08-12T09:31:28;101025.56;;;27.10;68.51
3206;BME280;1615;53.602;11.418;2023-08-12T09:34:05;101072.34;;;27.46;70.26
3206;BME280;1615;53.602;11.418;2023-08-12T09:36:34;101113.84;;;27.70;69.92
3206;BME280;1615;53.602;11.418;2023-08-12T09:38:59;101065.84;;;27.18;71.28
3206;BME280;1615;53.602;11.418;2023-08-12T09:41:27;101025.56;;;27.00;70.87
3206;BME280;1615;53.602;11.418;2023-08-12T09:43:54;101055.38;;;27.15;72.55
3206;BME280;1615;53.602;11.418;2023-08-12T09:46:22;101078.72;;;27.22;71.51
3206;BME280;1615;53.602;11.418;2023-08-12T09:48:49;101099.69;;;27.28;72.07
3206;BME280;1615;53.602;11.418;2023-08-12T09:51:15;101093.22;;;27.28;75.42
3206;BME280;1615;53.602;11.418;2023-08-12T09:53:42;101087.66;;;27.45;74.96
3206;BME280;1615;53.602;11.418;2023-08-12T09:56:08;101033.66;;;27.19;72.81
3206;BME280;1615;53.602;11.418;2023-08-12T09:58:36;101076.41;;;27.63;71.37
3206;BME280;1615;53.602;11.418;2023-08-12T10:01:03;101069.97;;;27.76;70.66
3206;BME280;1615;53.602;11.418;2023-08-12T10:03:29;101098.19;;;27.94;71.42
3206;BME280;1615;53.602;11.418;2023-08-12T10:05:55;101047.03;;;27.92;69.25
3206;BME280;1615;53.602;11.418;2023-08-12T10:08:21;101072.38;;;28.23;72.58
3206;BME280;1615;53.602;11.418;2023-08-12T10:10:48;101080.44;;;28.32;70.08
3206;BME280;1615;53.602;11.418;2023-08-12T10:13:14;101040.16;;;28.21;69.91
3206;BME280;1615;53.602;11.418;2023-08-12T10:15:40;101060.31;;;28.44;70.08
3206;BME280;1615;53.602;11.418;2023-08-12T10:18:07;101067.53;;;28.52;71.44
3206;BME280;1615;53.602;11.418;2023-08-12T10:20:35;100929.84;;;27.73;70.57
3206;BME280;1615;53.602;11.418;2023-08-12T10:23:02;100954.41;;;27.94;71.89
3206;BME280;1615;53.602;11.418;2023-08-12T10:25:31;101054.22;;;28.56;68.52
3206;BME280;1615;53.602;11.418;2023-08-12T10:27:57;101029.28;;;28.40;70.09
3206;BME280;1615;53.602;11.418;2023-08-12T10:30:23;100930.69;;;27.74;70.67
3206;BME280;1615;53.602;11.418;2023-08-12T10:32:49;101001.50;;;28.14;68.34
3206;BME280;1615;53.602;11.418;2023-08-12T10:35:15;100972.94;;;28.02;69.27
3206;BME280;1615;53.602;11.418;2023-08-12T10:37:40;101047.34;;;28.67;72.04
3206;BME280;1615;53.602;11.418;2023-08-12T10:40:19;101043.66;;;28.74;70.03
3206;BME280;1615;53.602;11.418;2023-08-12T10:42:47;101042.47;;;28.68;70.08
3206;BME280;1615;53.602;11.418;2023-08-12T10:45:14;100947.53;;;28.16;69.24
3206;BME280;1615;53.602;11.418;2023-08-12T10:47:41;101019.13;;;28.57;68.45
3206;BME280;1615;53.602;11.418;2023-08-12T10:50:21;100999.81;;;28.48;69.13
3206;BME280;1615;53.602;11.418;2023-08-12T10:52:48;101031.19;;;28.68;70.16
3206;BME280;1615;53.602;11.418;2023-08-12T10:57:42;100924.03;;;28.47;72.06
3206;BME280;1615;53.602;11.418;2023-08-12T11:00:13;101011.66;;;29.08;69.60
3206;BME280;1615;53.602;11.418;2023-08-12T11:02:38;100894.28;;;28.32;68.35
3206;BME280;1615;53.602;11.418;2023-08-12T11:05:09;100949.66;;;28.80;68.42
3206;BME280;1615;53.602;11.418;2023-08-12T11:07:44;101009.09;;;29.31;65.98
3206;BME280;1615;53.602;11.418;2023-08-12T11:10:15;100993.03;;;29.14;66.88
3206;BME280;1615;53.602;11.418;2023-08-12T11:12:47;100992.59;;;29.19;67.46
3206;BME280;1615;53.602;11.418;2023-08-12T11:15:13;100855.94;;;28.45;66.15
3206;BME280;1615;53.602;11.418;2023-08-12T11:17:40;100878.78;;;28.68;66.40
3206;BME280;1615;53.602;11.418;2023-08-12T11:20:10;100963.09;;;29.27;66.40
3206;BME280;1615;53.602;11.418;2023-08-12T11:22:41;101000.47;;;29.49;68.31
3206;BME280;1615;53.602;11.418;2023-08-12T11:25:09;100903.59;;;28.97;67.53
3206;BME280;1615;53.602;11.418;2023-08-12T11:27:47;100794.03;;;28.17;67.06
3206;BME280;1615;53.602;11.418;2023-08-12T11:30:14;100742.97;;;27.94;68.14
3206;BME280;1615;53.602;11.418;2023-08-12T11:32:45;100989.13;;;29.59;67.32
3206;BME280;1615;53.602;11.418;2023-08-12T11:35:12;100992.34;;;29.58;67.76
3206;BME280;1615;53.602;11.418;2023-08-12T11:37:39;100979.75;;;29.69;67.83
3206;BME280;1615;53.602;11.418;2023-08-12T11:40:05;100941.16;;;29.45;67.76
3206;BME280;1615;53.602;11.418;2023-08-12T11:42:32;100931.19;;;29.34;68.17
3206;BME280;1615;53.602;11.418;2023-08-12T11:44:57;100947.66;;;29.42;68.59
3206;BME280;1615;53.602;11.418;2023-08-12T11:47:23;100968.47;;;29.62;67.43
3206;BME280;1615;53.602;11.418;2023-08-12T11:49:48;100934.72;;;29.45;66.52
3206;BME280;1615;53.602;11.418;2023-08-12T11:52:14;100957.47;;;29.75;68.37
3206;BME280;1615;53.602;11.418;2023-08-12T11:54:39;100814.94;;;28.84;66.74
3206;BME280;1615;53.602;11.418;2023-08-12T11:57:05;100959.25;;;29.99;65.47
3206;BME280;1615;53.602;11.418;2023-08-12T11:59:31;100957.09;;;30.13;64.25
3206;BME280;1615;53.602;11.418;2023-08-12T12:01:56;100943.13;;;30.33;64.02
3206;BME280;1615;53.602;11.418;2023-08-12T12:04:22;100893.13;;;29.86;63.39
3206;BME280;1615;53.602;11.418;2023-08-12T12:06:48;100866.66;;;29.69;61.96
3206;BME280;1615;53.602;11.418;2023-08-12T12:09:13;100941.16;;;30.26;62.48
3206;BME280;1615;53.602;11.418;2023-08-12T12:11:45;100940.34;;;30.29;64.15
3206;BME280;1615;53.602;11.418;2023-08-12T12:14:11;100856.81;;;29.81;62.90
3206;BME280;1615;53.602;11.418;2023-08-12T12:16:46;100920.50;;;29.96;65.01
3206;BME280;1615;53.602;11.418;2023-08-12T12:21:46;100902.78;;;29.48;62.52
3206;BME280;1615;53.602;11.418;2023-08-12T12:24:12;100860.03;;;29.02;63.23
3206;BME280;1615;53.602;11.418;2023-08-12T12:26:37;100908.19;;;29.28;64.43
3206;BME280;1615;53.602;11.418;2023-08-12T12:29:04;100814.25;;;28.66;66.28
3206;BME280;1615;53.602;11.418;2023-08-12T12:31:32;100831.41;;;28.93;64.78
3206;BME280;1615;53.602;11.418;2023-08-12T12:33:57;100877.97;;;29.25;65.41
3206;BME280;1615;53.602;11.418;2023-08-12T12:36:23;100931.28;;;29.71;65.06
3206;BME280;1615;53.602;11.418;2023-08-12T12:38:48;100880.63;;;29.43;63.14
3206;BME280;1615;53.602;11.418;2023-08-12T12:41:13;100912.03;;;29.52;64.74
3206;BME280;1615;53.602;11.418;2023-08-12T12:43:39;100936.19;;;29.63;65.65
3206;BME280;1615;53.602;11.418;2023-08-12T12:46:05;100925.53;;;29.34;66.43
3206;BME280;1615;53.602;11.418;2023-08-12T12:48:30;100929.34;;;29.10;66.05
3206;BME280;1615;53.602;11.418;2023-08-12T12:50:55;100883.56;;;28.74;67.31
3206;BME280;1615;53.602;11.418;2023-08-12T12:53:20;100847.50;;;28.31;68.01
3206;BME280;1615;53.602;11.418;2023-08-12T12:55:46;100908.66;;;28.62;70.19
3206;BME280;1615;53.602;11.418;2023-08-12T12:58:11;100836.44;;;27.89;69.60